sensor_id;sensor_type;location;lat;lon;timestamp;temperature;humidity
39951;DHT22;25629;51.444;-2.606;2022-08-21T16:59:34;24.20;95.10
39951;DHT22;25629;51.444;-2.606;2022-08-21T17:02:00;24.10;95.20
39951;DHT22;25629;51.444;-2.606;2022-08-21T17:04:26;23.90;95.60
39951;DHT22;25629;51.444;-2.606;2022-08-21T17:06:53;23.80;95.60
39951;DHT22;25629;51.444;-2.606;2022-08-21T17:09:19;23.70;95.70
39951;DHT22;25629;51.444;-2.606;2022-08-21T17:11:47;23.70;95.90
39951;DHT22;25629;51.444;-2.606;2022-08-21T17:14:18;23.60;96.20
39951;DHT22;25629;51.444;-2.606;2022-08-21T17:16:47;23.40;97.00
39951;DHT22;25629;51.444;-2.606;2022-08-21T17:19:14;23.30;97.90
39951;DHT22;25629;51.444;-2.606;2022-08-21T17:21:40;23.30;98.40
39951;DHT22;25629;51.444;-2.606;2022-08-21T17:24:06;23.30;99.00
39951;DHT22;25629;51.444;-2.606;2022-08-21T17:26:32;23.20;99.50
39951;DHT22;25629;51.444;-2.606;2022-08-21T17:28:58;23.10;99.90
39951;DHT22;25629;51.444;-2.606;2022-08-21T17:31:24;23.00;99.90
39951;DHT22;25629;51.444;-2.606;2022-08-21T17:33:51;22.90;99.90
39951;DHT22;25629;51.444;-2.606;2022-08-21T17:36:20;22.90;99.90
39951;DHT22;25629;51.444;-2.606;2022-08-21T17:38:46;23.10;99.90
39951;DHT22;25629;51.444;-2.606;2022-08-21T17:41:13;23.10;99.90
39951;DHT22;25629;51.444;-2.606;2022-08-21T17:43:40;23.00;99.90
39951;DHT22;25629;51.444;-2.606;2022-08-21T17:46:06;22.90;99.90
39951;DHT22;25629;51.444;-2.606;2022-08-21T17:48:32;22.70;99.90
39951;DHT22;25629;51.444;-2.606;2022-08-21T17:50:58;22.70;99.90
39951;DHT22;25629;51.444;-2.606;2022-08-21T17:53:24;22.60;99.90
39951;DHT22;25629;51.444;-2.606;2022-08-21T17:55:50;22.70;99.90
39951;DHT22;25629;51.444;-2.606;2022-08-21T17:58:16;22.60;99.90
39951;DHT22;25629;51.444;-2.606;2022-08-21T18:00:43;22.50;99.90
39951;DHT22;25629;51.444;-2.606;2022-08-21T18:03:14;22.50;99.90
39951;DHT22;25629;51.444;-2.606;2022-08-21T18:05:45;22.50;99.90
39951;DHT22;25629;51.444;-2.606;2022-08-21T18:08:12;22.40;99.90
39951;DHT22;25629;51.444;-2.606;2022-08-21T18:10:40;22.40;99.90
39951;DHT22;25629;51.444;-2.606;2022-08-21T18:13:07;22.40;99.90
39951;DHT22;25629;51.444;-2.606;2022-08-21T18:15:35;22.40;99.90
39951;DHT22;25629;51.444;-2.606;2022-08-21T18:18:02;22.40;99.90
39951;DHT22;25629;51.444;-2.606;2022-08-21T18:20:29;22.40;99.90
39951;DHT22;25629;51.444;-2.606;2022-08-21T18:22:55;22.40;99.90
39951;DHT22;25629;51.444;-2.606;2022-08-21T18:25:21;22.30;99.90
39951;DHT22;25629;51.444;-2.606;2022-08-21T18:27:48;22.20;99.90
39951;DHT22;25629;51.444;-2.606;2022-08-21T18:30:17;22.20;99.90
39951;DHT22;25629;51.444;-2.606;2022-08-21T18:32:44;22.10;99.90
39951;DHT22;25629;51.444;-2.606;2022-08-21T18:35:11;22.10;99.90
39951;DHT22;25629;51.444;-2.606;2022-08-21T18:37:37;22.20;99.90
39951;DHT22;25629;51.444;-2.606;2022-08-21T18:40:05;22.10;99.90
39951;DHT22;25629;51.444;-2.606;2022-08-21T18:42:37;22.20;99.90
39951;DHT22;25629;51.444;-2.606;2022-08-21T18:45:07;22.10;99.90
39951;DHT22;25629;51.444;-2.606;2022-08-21T18:47:40;22.20;99.90
39951;DHT22;25629;51.444;-2.606;2022-08-21T18:50:08;22.10;99.90
39951;DHT22;25629;51.444;-2.606;2022-08-21T18:52:34;22.10;99.90
39951;DHT22;25629;51.444;-2.606;2022-08-21T18:55:01;22.10;99.90
39951;DHT22;25629;51.444;-2.606;2022-08-21T18:57:28;22.10;99.90
39951;DHT22;25629;51.444;-2.606;2022-08-21T18:59:55;22.00;99.90
39951;DHT22;25629;51.444;-2.606;2022-08-21T19:02:22;22.00;99.90
39951;DHT22;25629;51.444;-2.606;2022-08-21T19:04:48;22.00;99.90
39951;DHT22;25629;51.444;-2.606;2022-08-21T19:07:15;21.90;99.90
39951;DHT22;25629;51.444;-2.606;2022-08-21T19:09:42;21.90;99.90
39951;DHT22;25629;51.444;-2.606;2022-08-21T19:12:11;21.80;99.90
39951;DHT22;25629;51.444;-2.606;2022-08-21T19:14:38;21.70;99.90
39951;DHT22;25629;51.444;-2.606;2022-08-21T19:17:04;21.60;99.90
39951;DHT22;25629;51.444;-2.606;2022-08-21T19:19:30;21.60;99.90
39951;DHT22;25629;51.444;-2.606;2022-08-21T19:21:56;21.60;99.90
39951;DHT22;25629;51.444;-2.606;2022-08-21T19:24:22;21.50;99.90
39951;DHT22;25629;51.444;-2.606;2022-08-21T19:26:47;21.50;99.90
39951;DHT22;25629;51.444;-2.606;2022-08-21T19:29:15;21.50;99.90
39951;DHT22;25629;51.444;-2.606;2022-08-21T19:31:43;21.50;99.90
39951;DHT22;25629;51.444;-2.606;2022-08-21T19:34:18;21.50;99.90
39951;DHT22;25629;51.444;-2.606;2022-08-21T19:36:45;21.40;99.90
39951;DHT22;25629;51.444;-2.606;2022-08-21T19:39:12;21.40;99.90
39951;DHT22;25629;51.444;-2.606;2022-08-21T19:41:43;21.40;99.90
39951;DHT22;25629;51.444;-2.606;2022-08-21T19:44:16;21.40;99.90
39951;DHT22;25629;51.444;-2.606;2022-08-21T19:46:43;21.40;99.90
39951;DHT22;25629;51.444;-2.606;2022-08-21T19:49:12;21.40;99.90
39951;DHT22;25629;51.444;-2.606;2022-08-21T19:51:38;21.40;99.90
39951;DHT22;25629;51.444;-2.606;2022-08-21T19:54:14;21.30;99.90
39951;DHT22;25629;51.444;-2.606;2022-08-21T19:56:41;21.30;99.90
39951;DHT22;25629;51.444;-2.606;2022-08-21T19:59:07;21.30;99.90
39951;DHT22;25629;51.444;-2.606;2022-08-21T20:01:33;21.30;99.90
39951;DHT22;25629;51.444;-2.606;2022-08-21T20:03:58;21.20;99.90
39951;DHT22;25629;51.444;-2.606;2022-08-21T20:06:24;21.10;99.90
39951;DHT22;25629;51.444;-2.606;2022-08-21T20:08:51;21.10;99.90
39951;DHT22;25629;51.444;-2.606;2022-08-21T20:11:43;21.00;99.90
39951;DHT22;25629;51.444;-2.606;2022-08-21T20:14:08;20.90;99.90
39951;DHT22;25629;51.444;-2.606;2022-08-21T20:16:35;20.90;99.90
39951;DHT22;25629;51.444;-2.606;2022-08-21T20:19:01;20.90;99.90
39951;DHT22;25629;51.444;-2.606;2022-08-21T20:21:29;21.00;99.90
39951;DHT22;25629;51.444;-2.606;2022-08-21T20:23:55;20.90;99.90
39951;DHT22;25629;51.444;-2.606;2022-08-21T20:26:22;20.90;99.90
39951;DHT22;25629;51.444;-2.606;2022-08-21T20:28:48;20.90;99.90
39951;DHT22;25629;51.444;-2.606;2022-08-21T20:31:13;20.80;99.90
39951;DHT22;25629;51.444;-2.606;2022-08-21T20:33:48;20.80;99.90
39951;DHT22;25629;51.444;-2.606;2022-08-21T20:36:14;20.80;99.90
39951;DHT22;25629;51.444;-2.606;2022-08-21T20:38:40;20.70;99.90
39951;DHT22;25629;51.444;-2.606;2022-08-21T20:41:06;20.70;99.90
39951;DHT22;25629;51.444;-2.606;2022-08-21T20:43:36;20.70;99.90
39951;DHT22;25629;51.444;-2.606;2022-08-21T20:46:03;20.60;99.90
39951;DHT22;25629;51.444;-2.606;2022-08-21T20:48:34;20.60;99.90
39951;DHT22;25629;51.444;-2.606;2022-08-21T20:51:13;20.50;99.90
39951;DHT22;25629;51.444;-2.606;2022-08-21T20:56:51;20.40;99.90
39951;DHT22;25629;51.444;-2.606;2022-08-21T21:02:32;20.30;99.90
39951;DHT22;25629;51.444;-2.606;2022-08-21T21:04:58;20.30;99.90
39951;DHT22;25629;51.444;-2.606;2022-08-21T21:07:32;20.30;99.90
39951;DHT22;25629;51.444;-2.606;2022-08-21T21:10:02;20.30;99.90
39951;DHT22;25629;51.444;-2.606;2022-08-21T21:12:34;20.20;99.90
39951;DHT22;25629;51.444;-2.606;2022-08-21T21:15:08;20.10;99.90
39951;DHT22;25629;51.444;-2.606;2022-08-21T21:17:43;20.10;99.90
39951;DHT22;25629;51.444;-2.606;2022-08-21T21:20:19;20.10;99.90
39951;DHT22;25629;51.444;-2.606;2022-08-21T21:22:54;20.10;99.90
39951;DHT22;25629;51.444;-2.606;2022-08-21T21:25:36;20.10;99.90
39951;DHT22;25629;51.444;-2.606;2022-08-21T21:31:21;20.00;99.90
39951;DHT22;25629;51.444;-2.606;2022-08-21T21:33:47;19.90;99.90
39951;DHT22;25629;51.444;-2.606;2022-08-21T21:36:28;19.90;99.90
39951;DHT22;25629;51.444;-2.606;2022-08-21T21:39:02;19.80;99.90
39951;DHT22;25629;51.444;-2.606;2022-08-21T21:52:27;19.50;99.90
39951;DHT22;25629;51.444;-2.606;2022-08-21T22:00:26;19.40;99.90
39951;DHT22;25629;51.444;-2.606;2022-08-21T22:03:09;19.30;99.90
39951;DHT22;25629;51.444;-2.606;2022-08-21T22:11:56;19.30;99.90
39951;DHT22;25629;51.444;-2.606;2022-08-21T22:14:39;19.20;99.90
39951;DHT22;25629;51.444;-2.606;2022-08-21T22:19:46;19.10;99.90
39951;DHT22;25629;51.444;-2.606;2022-08-21T22:22:18;19.20;99.90
39951;DHT22;25629;51.444;-2.606;2022-08-21T22:24:47;19.20;99.90
39951;DHT22;25629;51.444;-2.606;2022-08-21T22:27:20;19.10;99.90
39951;DHT22;25629;51.444;-2.606;2022-08-21T22:29:50;19.10;99.90
39951;DHT22;25629;51.444;-2.606;2022-08-21T22:32:40;19.10;99.90
39951;DHT22;25629;51.444;-2.606;2022-08-21T22:35:22;19.10;99.90
39951;DHT22;25629;51.444;-2.606;2022-08-21T22:40:20;19.10;99.90
39951;DHT22;25629;51.444;-2.606;2022-08-21T22:43:01;19.10;99.90
39951;DHT22;25629;51.444;-2.606;2022-08-21T22:45:28;19.00;99.90
39951;DHT22;25629;51.444;-2.606;2022-08-21T22:48:03;19.00;99.90
39951;DHT22;25629;51.444;-2.606;2022-08-21T22:50:31;18.90;99.90
39951;DHT22;25629;51.444;-2.606;2022-08-21T22:53:07;18.90;99.90
39951;DHT22;25629;51.444;-2.606;2022-08-21T22:55:37;18.90;99.90
39951;DHT22;25629;51.444;-2.606;2022-08-21T23:03:31;18.80;99.90
39951;DHT22;25629;51.444;-2.606;2022-08-21T23:05:59;18.70;99.90
39951;DHT22;25629;51.444;-2.606;2022-08-21T23:08:34;18.70;99.90
39951;DHT22;25629;51.444;-2.606;2022-08-21T23:11:06;18.60;99.90
39951;DHT22;25629;51.444;-2.606;2022-08-21T23:13:41;18.60;99.90
39951;DHT22;25629;51.444;-2.606;2022-08-21T23:22:35;18.40;99.90
39951;DHT22;25629;51.444;-2.606;2022-08-21T23:58:30;18.10;99.90
